createdAt,value
2019-02-28T00:01:31.960Z,100.83
2019-02-28T00:04:02.078Z,115.13
2019-02-28T00:06:32.100Z,100.93
2019-02-28T00:09:02.525Z,100.10
2019-02-28T00:11:33.054Z,107.27
2019-02-28T00:14:03.388Z,100.80
2019-02-28T00:16:35.651Z,108.83
2019-02-28T00:19:05.769Z,99.27
2019-02-28T00:21:37.363Z,106.37
2019-02-28T00:24:07.743Z,104.47
2019-02-28T00:26:38.066Z,110.80
2019-02-28T00:29:09.462Z,100.53
2019-02-28T00:31:39.969Z,100.50
2019-02-28T00:34:10.270Z,107.93
2019-02-28T00:36:40.593Z,109.53
2019-02-28T00:39:10.921Z,98.43
2019-02-28T00:41:44.467Z,112.80
2019-02-28T00:44:12.795Z,108.53
2019-02-28T00:46:45.229Z,109.60
2019-02-28T00:49:14.670Z,105.53
2019-02-28T00:51:44.892Z,99.33
2019-02-28T00:54:15.425Z,107.10
2019-02-28T00:56:51.560Z,107.23
2019-02-28T00:59:17.399Z,100.90
2019-02-28T01:01:47.726Z,100.30
2019-02-28T01:04:18.046Z,100.50
2019-02-28T01:06:48.370Z,100.77
2019-02-28T01:09:18.598Z,104.40
2019-02-28T01:11:48.916Z,101.20
2019-02-28T01:14:19.242Z,108.37
2019-02-28T01:16:50.231Z,102.27
2019-02-28T01:19:21.530Z,108.63
2019-02-28T01:21:51.853Z,97.20
2019-02-28T01:24:22.072Z,105.77
2019-02-28T01:26:52.395Z,106.00
2019-02-28T01:29:22.627Z,110.67
2019-02-28T01:31:52.944Z,103.40
2019-02-28T01:34:23.264Z,101.87
2019-02-28T01:36:53.286Z,95.00
2019-02-28T01:39:23.502Z,97.67
2019-02-28T01:41:53.836Z,97.53
2019-02-28T01:44:24.155Z,97.93
2019-02-28T01:46:54.481Z,97.83
2019-02-28T01:49:25.964Z,103.63
2019-02-28T01:51:56.456Z,103.30
2019-02-28T01:54:27.713Z,103.03
2019-02-28T01:56:58.437Z,101.17
2019-02-28T01:59:28.758Z,91.87
2019-02-28T02:01:59.086Z,93.30
2019-02-28T02:04:29.243Z,99.10
2019-02-28T02:07:00.466Z,93.50
2019-02-28T02:09:31.389Z,102.00
2019-02-28T02:12:01.608Z,91.23
2019-02-28T02:14:31.931Z,92.53
2019-02-28T02:17:02.272Z,104.97
2019-02-28T02:19:32.375Z,96.40
2019-02-28T02:22:02.618Z,96.37
2019-02-28T02:24:32.920Z,103.67
2019-02-28T02:27:03.142Z,101.33
2019-02-28T02:29:36.451Z,103.03
2019-02-28T02:32:05.237Z,100.23
2019-02-28T02:34:35.547Z,115.13
2019-02-28T02:37:05.893Z,103.60
2019-02-28T02:39:36.195Z,100.17
2019-02-28T02:42:10.413Z,90.90
2019-02-28T02:44:38.176Z,97.30
2019-02-28T02:47:08.524Z,95.57
2019-02-28T02:49:38.726Z,98.10
2019-02-28T02:52:08.953Z,95.43
2019-02-28T02:54:39.164Z,95.93
2019-02-28T02:57:14.036Z,106.73
2019-02-28T02:59:41.248Z,99.40
2019-02-28T03:02:11.571Z,91.70
2019-02-28T03:04:41.690Z,101.97
2019-02-28T03:07:12.015Z,101.23
2019-02-28T03:09:43.512Z,106.80
2019-02-28T03:12:13.794Z,95.63
2019-02-28T03:14:44.216Z,99.87
2019-02-28T03:17:14.540Z,102.83
2019-02-28T03:19:44.966Z,96.90
2019-02-28T03:22:15.187Z,102.47
2019-02-28T03:24:50.472Z,95.00
2019-02-28T03:27:19.031Z,96.17
2019-02-28T03:29:52.099Z,96.77
2019-02-28T03:32:22.435Z,104.93
2019-02-28T03:34:57.951Z,102.00
2019-02-28T03:37:24.401Z,111.30
2019-02-28T03:40:02.429Z,97.57
2019-02-28T03:42:28.928Z,111.93
2019-02-28T03:44:58.387Z,116.30
2019-02-28T03:47:28.774Z,114.53
2019-02-28T03:49:58.993Z,115.37
2019-02-28T03:52:29.318Z,108.43
2019-02-28T03:55:03.457Z,102.40
2019-02-28T03:57:31.402Z,127.83
2019-02-28T04:00:01.938Z,123.30
2019-02-28T04:02:32.969Z,121.80
2019-02-28T04:05:03.017Z,124.10
2019-02-28T04:07:34.699Z,117.13
2019-02-28T04:10:07.182Z,143.00
2019-02-28T04:12:44.858Z,123.40
2019-02-28T04:15:17.722Z,119.33
2019-02-28T04:17:48.018Z,125.80
2019-02-28T04:20:18.458Z,133.57
2019-02-28T04:22:48.976Z,128.43
2019-02-28T04:25:22.960Z,118.67
2019-02-28T04:27:50.951Z,138.07
2019-02-28T04:30:21.278Z,132.77
2019-02-28T04:32:51.307Z,125.10
2019-02-28T04:35:25.252Z,128.63
2019-02-28T04:37:53.693Z,116.10
2019-02-28T04:40:26.872Z,122.33
2019-02-28T04:42:55.556Z,138.37
2019-02-28T04:45:26.259Z,123.40
2019-02-28T04:47:57.434Z,129.40
2019-02-28T04:50:31.224Z,133.23
2019-02-28T04:52:59.311Z,116.33
2019-02-28T04:55:30.637Z,125.97
2019-02-28T04:58:01.190Z,118.43
2019-02-28T05:00:31.510Z,122.87
2019-02-28T05:03:01.836Z,118.27
2019-02-28T05:05:32.160Z,122.13
2019-02-28T05:08:05.727Z,135.37
2019-02-28T05:10:34.241Z,118.43
2019-02-28T05:13:04.464Z,127.97
2019-02-28T05:15:37.698Z,107.67
2019-02-28T05:18:06.351Z,107.80
2019-02-28T05:20:36.666Z,117.97
2019-02-28T05:23:06.994Z,108.97
2019-02-28T05:25:37.211Z,112.43
2019-02-28T05:28:07.546Z,112.53
2019-02-28T05:30:38.081Z,106.73
2019-02-28T05:33:08.140Z,105.63
2019-02-28T05:35:38.235Z,107.50
2019-02-28T05:38:08.270Z,108.03
2019-02-28T05:40:41.373Z,117.40
2019-02-28T05:43:10.297Z,102.77
2019-02-28T05:45:40.933Z,96.47
2019-02-28T05:48:11.001Z,93.40
2019-02-28T05:50:41.170Z,90.83
2019-02-28T05:53:11.494Z,99.43
2019-02-28T05:55:41.716Z,86.47
2019-02-28T05:58:12.037Z,98.67
2019-02-28T06:00:43.182Z,88.37
2019-02-28T06:03:13.298Z,128.23
2019-02-28T06:05:46.346Z,233.77
2019-02-28T06:08:16.331Z,275.53
2019-02-28T06:10:46.629Z,236.10
2019-02-28T06:13:18.311Z,194.20
2019-02-28T06:15:48.607Z,185.33
2019-02-28T06:18:18.787Z,153.53
2019-02-28T06:20:51.383Z,142.53
2019-02-28T06:23:20.805Z,127.60
2019-02-28T06:25:51.132Z,107.77
2019-02-28T06:28:21.454Z,118.83
2019-02-28T06:30:51.778Z,112.00
2019-02-28T06:33:22.104Z,100.67
2019-02-28T06:35:53.699Z,102.20
2019-02-28T06:38:24.184Z,107.53
2019-02-28T06:40:54.405Z,91.60
2019-02-28T06:43:24.637Z,90.17
2019-02-28T06:45:54.956Z,83.13
2019-02-28T06:48:26.636Z,87.43
2019-02-28T06:50:56.932Z,86.87
2019-02-28T06:53:30.744Z,88.57
2019-02-28T06:56:00.139Z,85.30
2019-02-28T06:58:33.234Z,83.53
2019-02-28T07:01:02.223Z,76.50
2019-02-28T07:03:35.337Z,77.07
2019-02-28T07:06:05.432Z,67.50
2019-02-28T07:08:35.752Z,69.80
2019-02-28T07:11:08.418Z,73.33
2019-02-28T07:13:41.432Z,72.20
2019-02-28T07:16:12.055Z,65.40
2019-02-28T07:18:42.277Z,72.07
2019-02-28T07:21:12.595Z,75.30
2019-02-28T07:23:43.804Z,72.87
2019-02-28T07:26:14.272Z,68.70
2019-02-28T07:28:44.390Z,77.13
2019-02-28T07:31:14.715Z,76.10
2019-02-28T07:33:45.298Z,68.03
2019-02-28T07:36:15.689Z,72.23
2019-02-28T07:38:45.886Z,68.73
2019-02-28T07:41:16.212Z,68.07
2019-02-28T07:43:46.958Z,70.47
2019-02-28T07:46:17.482Z,77.47
2019-02-28T07:48:47.605Z,81.87
2019-02-28T07:51:18.393Z,69.50
2019-02-28T07:53:49.682Z,71.13
2019-02-28T07:56:20.206Z,73.57
2019-02-28T07:58:50.323Z,75.67
2019-02-28T08:01:20.645Z,70.30
2019-02-28T08:03:50.978Z,75.90
2019-02-28T08:06:21.194Z,69.17
2019-02-28T08:08:51.519Z,74.43
2019-02-28T08:11:21.631Z,80.13
2019-02-28T08:13:51.960Z,64.70
2019-02-28T08:16:22.044Z,74.63
2019-02-28T08:18:52.428Z,63.23
2019-02-28T08:21:23.139Z,77.50
2019-02-28T08:23:53.461Z,65.13
2019-02-28T08:26:23.791Z,76.30
2019-02-28T08:28:54.108Z,70.97
2019-02-28T08:31:24.179Z,79.60
2019-02-28T08:33:54.551Z,73.17
2019-02-28T08:36:24.876Z,64.33
2019-02-28T08:38:55.201Z,59.20
2019-02-28T08:41:25.790Z,53.23
2019-02-28T08:43:56.667Z,65.43
2019-02-28T08:46:26.992Z,61.23
2019-02-28T08:48:57.070Z,47.33
2019-02-28T08:51:27.753Z,60.07
2019-02-28T08:53:58.906Z,54.27
2019-02-28T08:56:28.931Z,52.50
2019-02-28T08:58:59.003Z,52.77
2019-02-28T09:01:29.056Z,46.63
2019-02-28T09:03:59.421Z,45.67
2019-02-28T09:06:31.121Z,45.67
2019-02-28T09:09:01.446Z,47.40
2019-02-28T09:11:31.480Z,47.20
2019-02-28T09:14:01.517Z,44.07
2019-02-28T09:16:31.800Z,34.33
2019-02-28T09:19:01.953Z,31.83
2019-02-28T09:21:32.243Z,33.23
2019-02-28T09:24:02.583Z,39.67
2019-02-28T09:26:33.097Z,22.93
2019-02-28T09:29:03.445Z,31.17
2019-02-28T09:31:38.822Z,17.17
2019-02-28T09:34:05.503Z,23.53
2019-02-28T09:36:35.738Z,29.73
2019-02-28T09:39:07.178Z,18.33
2019-02-28T09:41:40.224Z,22.97
2019-02-28T09:44:09.259Z,21.13
2019-02-28T09:46:39.580Z,27.23
2019-02-28T09:49:12.909Z,19.90
2019-02-28T09:51:42.524Z,14.97
2019-02-28T09:54:12.907Z,17.67
2019-02-28T09:56:44.508Z,22.03
2019-02-28T09:59:14.787Z,20.73
2019-02-28T10:01:45.107Z,18.47
2019-02-28T10:04:15.228Z,25.23
2019-02-28T10:06:48.477Z,18.33
2019-02-28T10:09:17.750Z,15.83
2019-02-28T10:11:47.867Z,13.53
2019-02-28T10:14:18.060Z,14.97
2019-02-28T10:16:49.593Z,11.70
2019-02-28T10:19:19.936Z,12.93
2019-02-28T10:21:52.142Z,16.10
2019-02-28T10:24:21.816Z,7.17
2019-02-28T10:26:52.355Z,8.40
2019-02-28T10:29:22.667Z,11.07
2019-02-28T10:31:52.699Z,8.67
2019-02-28T10:34:23.460Z,20.50
2019-02-28T10:36:54.881Z,6.70
2019-02-28T10:39:25.213Z,10.60
2019-02-28T10:41:55.926Z,14.40
2019-02-28T10:44:30.341Z,7.43
2019-02-28T10:46:58.008Z,8.00
2019-02-28T10:49:28.332Z,14.30
2019-02-28T10:51:58.661Z,6.77
2019-02-28T10:54:28.979Z,14.33
2019-02-28T10:56:59.321Z,13.60
2019-02-28T10:59:29.633Z,9.90
2019-02-28T11:01:59.740Z,14.60
2019-02-28T11:04:30.257Z,16.30
2019-02-28T11:07:02.245Z,11.13
2019-02-28T11:09:32.567Z,7.87
2019-02-28T11:12:02.742Z,10.00
2019-02-28T11:14:35.564Z,12.30
2019-02-28T11:17:07.563Z,8.97
2019-02-28T11:19:36.724Z,11.57
2019-02-28T11:22:06.895Z,12.23
2019-02-28T11:24:37.375Z,5.40
2019-02-28T11:27:10.580Z,8.17
2019-02-28T11:29:44.201Z,5.20
2019-02-28T11:32:14.900Z,8.03
2019-02-28T11:34:45.815Z,10.50
2019-02-28T11:37:17.600Z,8.83
2019-02-28T11:39:48.134Z,10.33
2019-02-28T11:42:18.359Z,10.70
2019-02-28T11:44:48.570Z,8.00
2019-02-28T11:47:19.710Z,9.93
2019-02-28T11:49:49.944Z,3.80
2019-02-28T11:52:20.155Z,8.17
2019-02-28T11:54:50.476Z,6.97
2019-02-28T11:57:20.781Z,10.00
2019-02-28T11:59:51.124Z,16.73
2019-02-28T12:02:21.521Z,5.27
2019-02-28T12:04:51.672Z,7.70
2019-02-28T12:07:21.892Z,5.90
2019-02-28T12:09:54.718Z,7.03
2019-02-28T12:12:23.772Z,6.97
2019-02-28T12:14:54.093Z,11.97
2019-02-28T12:17:25.594Z,10.90
2019-02-28T12:19:55.974Z,16.80
2019-02-28T12:22:28.836Z,12.60
2019-02-28T12:25:04.507Z,16.27
2019-02-28T12:27:34.419Z,10.10
2019-02-28T12:30:06.184Z,5.70
2019-02-28T12:32:36.512Z,8.67
2019-02-28T12:35:07.700Z,8.97
2019-02-28T12:37:37.715Z,11.37
2019-02-28T12:40:13.782Z,11.03
2019-02-28T12:42:44.152Z,9.97
2019-02-28T12:45:21.194Z,5.30
2019-02-28T12:47:51.767Z,11.37
2019-02-28T12:50:22.286Z,6.13
2019-02-28T12:52:52.320Z,13.00
2019-02-28T12:55:22.732Z,8.27
2019-02-28T12:57:54.794Z,6.97
2019-02-28T13:00:36.484Z,8.47
2019-02-28T13:03:08.977Z,8.77
2019-02-28T13:05:38.463Z,7.73
2019-02-28T13:08:08.686Z,8.83
2019-02-28T13:10:38.907Z,12.13
2019-02-28T13:13:09.187Z,15.60
2019-02-28T13:15:39.556Z,16.00
2019-02-28T13:18:10.142Z,13.07
2019-02-28T13:20:41.546Z,14.43
2019-02-28T13:23:11.757Z,10.13
2019-02-28T13:25:42.080Z,14.50
2019-02-28T13:28:18.019Z,14.20
2019-02-28T13:30:50.577Z,17.47
2019-02-28T13:33:19.512Z,10.77
2019-02-28T13:35:49.608Z,15.03
2019-02-28T13:38:19.998Z,15.03
2019-02-28T13:40:50.701Z,10.17
2019-02-28T13:43:22.653Z,17.73
2019-02-28T13:45:55.888Z,6.30
2019-02-28T13:48:26.493Z,10.73
2019-02-28T13:50:59.417Z,14.30
2019-02-28T13:53:30.545Z,9.30
2019-02-28T13:55:59.599Z,8.67
2019-02-28T13:58:29.717Z,13.20
2019-02-28T14:01:00.036Z,13.37
2019-02-28T14:03:30.359Z,9.33
2019-02-28T14:06:00.477Z,17.93
2019-02-28T14:08:30.801Z,9.13
2019-02-28T14:11:01.536Z,11.90
2019-02-28T14:13:34.686Z,13.70
2019-02-28T14:16:03.819Z,18.70
2019-02-28T14:18:33.952Z,16.33
2019-02-28T14:21:04.271Z,9.83
2019-02-28T14:23:34.589Z,24.03
2019-02-28T14:26:05.326Z,8.03
2019-02-28T14:28:36.311Z,15.57
2019-02-28T14:31:06.891Z,12.17
2019-02-28T14:33:36.923Z,12.80
2019-02-28T14:36:07.504Z,18.10
2019-02-28T14:38:39.297Z,20.37
2019-02-28T14:41:09.933Z,12.27
2019-02-28T14:43:40.257Z,7.93
2019-02-28T14:46:10.476Z,10.17
2019-02-28T14:48:42.236Z,16.73
2019-02-28T14:51:12.565Z,13.07
2019-02-28T14:53:45.406Z,14.60
2019-02-28T14:56:14.645Z,8.63
2019-02-28T14:58:44.961Z,21.87
2019-02-28T15:01:18.041Z,12.00
2019-02-28T15:03:47.455Z,15.10
2019-02-28T15:06:17.779Z,16.00
2019-02-28T15:08:50.979Z,11.93
2019-02-28T15:11:20.063Z,11.00
2019-02-28T15:13:50.628Z,17.90
2019-02-28T15:16:21.939Z,11.13
2019-02-28T15:18:52.264Z,12.10
2019-02-28T15:21:22.592Z,14.17
2019-02-28T15:23:52.366Z,6.67
2019-02-28T15:26:22.163Z,14.33
2019-02-28T15:28:51.850Z,10.23
2019-02-28T15:31:21.681Z,9.03
2019-02-28T15:33:52.760Z,17.40
2019-02-28T15:36:24.176Z,7.83
2019-02-28T15:38:54.112Z,7.73
2019-02-28T15:41:23.900Z,10.20
2019-02-28T15:43:54.444Z,12.33
2019-02-28T15:46:24.326Z,8.60
2019-02-28T15:48:54.030Z,18.93
2019-02-28T15:51:25.649Z,18.77
2019-02-28T15:53:55.243Z,16.13
2019-02-28T15:56:25.261Z,16.37
2019-02-28T15:58:55.129Z,14.30
2019-02-28T16:01:24.932Z,19.67
2019-02-28T16:03:54.709Z,16.00
2019-02-28T16:06:24.459Z,17.83
2019-02-28T16:08:54.303Z,17.30
2019-02-28T16:11:24.117Z,20.80
2019-02-28T16:13:53.790Z,15.43
2019-02-28T16:16:24.675Z,11.23
2019-02-28T16:18:55.028Z,24.57
2019-02-28T16:21:25.353Z,19.63
2019-02-28T16:23:55.269Z,19.20
2019-02-28T16:26:25.017Z,15.40
2019-02-28T16:28:54.793Z,18.43
2019-02-28T16:31:24.625Z,25.40
2019-02-28T16:33:56.571Z,35.60
2019-02-28T16:36:26.609Z,35.30
2019-02-28T16:38:56.593Z,24.77
2019-02-28T16:41:26.326Z,28.47
2019-02-28T16:43:58.059Z,31.10
2019-02-28T16:46:27.726Z,25.33
2019-02-28T16:48:57.415Z,21.60
2019-02-28T16:51:29.416Z,18.30
2019-02-28T16:53:59.151Z,21.20
2019-02-28T16:56:28.987Z,30.53
2019-02-28T16:59:00.725Z,27.23
2019-02-28T17:01:30.950Z,23.33
2019-02-28T17:04:00.759Z,22.77
2019-02-28T17:06:32.524Z,18.50
2019-02-28T17:09:18.629Z,15.13
2019-02-28T17:11:58.701Z,16.57
2019-02-28T17:14:28.472Z,15.93
2019-02-28T17:17:08.678Z,15.57
2019-02-28T17:19:37.170Z,13.27
2019-02-28T17:22:07.126Z,18.13
2019-02-28T17:24:36.915Z,15.63
2019-02-28T17:27:11.214Z,18.97
2019-02-28T17:29:42.620Z,25.63
2019-02-28T17:32:12.512Z,11.67
2019-02-28T17:34:42.330Z,20.40
2019-02-28T17:37:12.072Z,15.33
2019-02-28T17:39:41.851Z,15.20
2019-02-28T17:42:14.896Z,10.13
2019-02-28T17:44:46.491Z,15.70
2019-02-28T17:47:36.768Z,23.53
2019-02-28T17:50:29.017Z,14.23
2019-02-28T17:53:07.008Z,12.80
2019-02-28T17:55:56.836Z,16.43
2019-02-28T17:58:32.706Z,13.17
2019-02-28T18:01:39.299Z,12.07
2019-02-28T18:04:45.587Z,15.10
2019-02-28T18:07:39.644Z,24.53
2019-02-28T18:10:20.944Z,13.30
2019-02-28T18:13:01.732Z,20.40
2019-02-28T18:16:01.483Z,8.47
2019-02-28T18:18:36.932Z,16.97
2019-02-28T18:21:17.341Z,8.90
2019-02-28T18:24:00.113Z,12.20
2019-02-28T18:26:44.847Z,11.07
2019-02-28T18:29:43.692Z,9.87
2019-02-28T18:32:13.450Z,13.47
2019-02-28T18:34:43.138Z,9.70
2019-02-28T18:37:12.844Z,11.57
2019-02-28T18:39:44.685Z,27.23
2019-02-28T18:42:16.030Z,12.77
2019-02-28T18:44:45.454Z,8.27
2019-02-28T18:47:15.133Z,11.17
2019-02-28T18:49:44.945Z,7.33
2019-02-28T18:52:14.764Z,11.83
2019-02-28T18:54:44.519Z,13.57
2019-02-28T18:57:14.390Z,18.40
2019-02-28T18:59:44.546Z,14.60
2019-02-28T19:02:14.250Z,13.47
2019-02-28T19:04:44.028Z,9.10
2019-02-28T19:07:13.857Z,10.80
2019-02-28T19:09:43.788Z,15.67
2019-02-28T19:12:13.583Z,12.37
2019-02-28T19:14:43.303Z,18.57
2019-02-28T19:17:13.142Z,13.20
2019-02-28T19:19:42.997Z,14.27
2019-02-28T19:22:12.914Z,12.27
2019-02-28T19:24:42.678Z,10.80
2019-02-28T19:27:12.597Z,16.00
2019-02-28T19:29:42.474Z,17.00
2019-02-28T19:32:13.200Z,23.40
2019-02-28T19:34:43.039Z,16.70
2019-02-28T19:37:12.951Z,12.23
2019-02-28T19:39:42.778Z,16.13
2019-02-28T19:42:12.531Z,14.20
2019-02-28T19:44:42.305Z,10.50
2019-02-28T19:47:11.988Z,7.77
2019-02-28T19:49:41.683Z,7.80
2019-02-28T19:52:11.580Z,10.07
2019-02-28T19:54:41.639Z,9.47
2019-02-28T19:57:11.340Z,6.60
2019-02-28T19:59:41.093Z,6.43
2019-02-28T20:02:10.918Z,8.80
2019-02-28T20:04:40.907Z,5.67
2019-02-28T20:07:14.851Z,10.67
2019-02-28T20:09:45.148Z,11.40
2019-02-28T20:12:14.983Z,8.50
2019-02-28T20:14:44.810Z,13.43
2019-02-28T20:17:16.961Z,8.03
2019-02-28T20:19:48.195Z,7.77
2019-02-28T20:22:19.489Z,9.07
2019-02-28T20:24:49.441Z,6.47
2019-02-28T20:27:19.314Z,6.73
2019-02-28T20:29:55.145Z,13.77
2019-02-28T20:32:21.622Z,10.00
2019-02-28T20:34:51.454Z,7.27
2019-02-28T20:37:21.231Z,6.90
2019-02-28T20:39:50.990Z,6.40
2019-02-28T20:42:20.720Z,17.07
2019-02-28T20:44:50.465Z,4.87
2019-02-28T20:47:20.251Z,4.70
2019-02-28T20:49:51.101Z,6.43
2019-02-28T20:52:20.804Z,7.30
2019-02-28T20:54:52.120Z,8.37
2019-02-28T20:57:22.146Z,15.60
2019-02-28T20:59:55.664Z,7.20
2019-02-28T21:02:27.350Z,8.43
2019-02-28T21:04:57.117Z,4.20
2019-02-28T21:07:27.013Z,7.00
2019-02-28T21:09:56.750Z,5.53
2019-02-28T21:12:26.654Z,14.93
2019-02-28T21:14:56.504Z,5.10
2019-02-28T21:17:29.333Z,4.83
2019-02-28T21:19:57.433Z,11.00
2019-02-28T21:22:27.124Z,6.60
2019-02-28T21:24:56.880Z,6.40
2019-02-28T21:27:26.529Z,7.10
2019-02-28T21:29:56.231Z,6.67
2019-02-28T21:32:25.980Z,4.47
2019-02-28T21:34:55.929Z,6.70
2019-02-28T21:37:25.726Z,4.20
2019-02-28T21:39:55.454Z,6.53
2019-02-28T21:42:25.147Z,5.53
2019-02-28T21:44:55.068Z,7.30
2019-02-28T21:47:24.701Z,6.87
2019-02-28T21:49:54.312Z,7.13
2019-02-28T21:52:24.129Z,8.37
2019-02-28T21:54:53.801Z,6.90
2019-02-28T21:57:23.617Z,7.00
2019-02-28T21:59:53.313Z,9.83
2019-02-28T22:02:23.200Z,4.50
2019-02-28T22:04:52.894Z,7.50
2019-02-28T22:07:22.722Z,7.17
2019-02-28T22:09:52.413Z,9.73
2019-02-28T22:12:22.249Z,13.00
2019-02-28T22:14:52.006Z,13.67
2019-02-28T22:17:21.720Z,11.37
2019-02-28T22:19:51.584Z,19.60
2019-02-28T22:22:21.292Z,12.80
2019-02-28T22:24:51.162Z,21.80
2019-02-28T22:27:20.956Z,16.07
2019-02-28T22:29:50.618Z,13.70
2019-02-28T22:32:24.608Z,13.03
2019-02-28T22:34:54.983Z,13.40
2019-02-28T22:37:24.948Z,13.73
2019-02-28T22:39:54.676Z,23.53
2019-02-28T22:42:24.709Z,10.47
2019-02-28T22:44:54.489Z,15.77
2019-02-28T22:47:24.363Z,24.53
2019-02-28T22:49:54.205Z,15.90
2019-02-28T22:52:24.903Z,15.07
2019-02-28T22:54:54.831Z,11.03
2019-02-28T22:57:24.576Z,14.73
2019-02-28T22:59:54.300Z,8.10
2019-02-28T23:02:24.905Z,15.87
2019-02-28T23:04:54.894Z,12.90
2019-02-28T23:07:24.528Z,4.50
2019-02-28T23:09:54.545Z,10.33
2019-02-28T23:12:24.327Z,6.00
2019-02-28T23:14:53.982Z,5.77
2019-02-28T23:17:23.881Z,6.03
2019-02-28T23:19:53.717Z,10.37
2019-02-28T23:22:23.347Z,5.20
2019-02-28T23:24:53.108Z,11.43
2019-02-28T23:27:22.815Z,8.93
2019-02-28T23:29:58.289Z,8.37
2019-02-28T23:32:40.064Z,8.93
2019-02-28T23:35:19.154Z,6.13
2019-02-28T23:37:48.867Z,6.47
2019-02-28T23:40:18.534Z,7.17
2019-02-28T23:42:48.311Z,5.53
2019-02-28T23:45:18.136Z,13.73
2019-02-28T23:47:47.849Z,5.60
2019-02-28T23:50:17.585Z,4.80
2019-02-28T23:52:48.153Z,4.63
2019-02-28T23:55:17.865Z,4.63
2019-02-28T23:57:47.671Z,9.13
